Rossville, Ohio
Current Conditions -  °F | °C
As of 11:53 AM on Saturday 25 Oct 2014 (Local Time) from KHAO Reporting Station
Overcast Overcast  
Wind Chill: 63°   Ceiling: 2200
Heat Index: 63°   Visibility: 8mi
Dew Point: 53°   Wind: 5mph
Humidity: 70%   Direction: NA
Pressure: 29.98"   Gusts: NA
Location:  39.4158°N, 84.6488°W
Report Text: KHAO 251553Z AUTO VRB04KT 8SM OVC022 17/12 A2998 RMK AO2 SLP152 T01720117 $
Loading
Personal Weather Stations






























Interactive Weather Map New forecast layout! Learn more

10-Day Weather Forecast

Advertisements
Track Severe Weather on mobile